sensor_id;sensor_type;location;lat;lon;timestamp;temperature;humidity
76838;DHT22;65797;47.352;8.164;2023-03-01T00:01:48;0.20;99.90
76838;DHT22;65797;47.352;8.164;2023-03-01T00:04:14;0.20;99.90
76838;DHT22;65797;47.352;8.164;2023-03-01T00:06:42;0.20;99.90
76838;DHT22;65797;47.352;8.164;2023-03-01T00:09:08;0.20;99.90
76838;DHT22;65797;47.352;8.164;2023-03-01T00:11:33;0.20;99.90
76838;DHT22;65797;47.352;8.164;2023-03-01T00:14:01;0.20;99.90
76838;DHT22;65797;47.352;8.164;2023-03-01T00:16:44;0.20;99.90
76838;DHT22;65797;47.352;8.164;2023-03-01T00:19:13;0.20;99.90
76838;DHT22;65797;47.352;8.164;2023-03-01T00:21:39;0.20;99.90
76838;DHT22;65797;47.352;8.164;2023-03-01T00:24:06;0.20;99.90
76838;DHT22;65797;47.352;8.164;2023-03-01T00:26:32;0.20;99.90
76838;DHT22;65797;47.352;8.164;2023-03-01T00:28:58;0.20;99.90
76838;DHT22;65797;47.352;8.164;2023-03-01T00:31:30;0.30;99.90
76838;DHT22;65797;47.352;8.164;2023-03-01T00:33:57;0.20;99.90
76838;DHT22;65797;47.352;8.164;2023-03-01T00:36:26;0.30;99.90
76838;DHT22;65797;47.352;8.164;2023-03-01T00:38:52;0.30;99.90
76838;DHT22;65797;47.352;8.164;2023-03-01T00:41:19;0.30;99.90
76838;DHT22;65797;47.352;8.164;2023-03-01T00:43:46;0.30;99.90
76838;DHT22;65797;47.352;8.164;2023-03-01T00:46:17;0.30;99.90
76838;DHT22;65797;47.352;8.164;2023-03-01T00:48:44;0.30;99.90
76838;DHT22;65797;47.352;8.164;2023-03-01T00:53:40;0.30;99.90
76838;DHT22;65797;47.352;8.164;2023-03-01T00:56:07;0.30;99.90
76838;DHT22;65797;47.352;8.164;2023-03-01T00:58:34;0.30;99.90
76838;DHT22;65797;47.352;8.164;2023-03-01T01:01:00;0.30;99.90
76838;DHT22;65797;47.352;8.164;2023-03-01T01:03:27;0.30;99.90
76838;DHT22;65797;47.352;8.164;2023-03-01T01:05:53;0.40;99.90
76838;DHT22;65797;47.352;8.164;2023-03-01T01:08:20;0.40;99.90
76838;DHT22;65797;47.352;8.164;2023-03-01T01:10:46;0.40;99.90
76838;DHT22;65797;47.352;8.164;2023-03-01T01:13:12;0.40;99.90
76838;DHT22;65797;47.352;8.164;2023-03-01T01:15:38;0.40;99.90
76838;DHT22;65797;47.352;8.164;2023-03-01T01:18:04;0.40;99.90
76838;DHT22;65797;47.352;8.164;2023-03-01T01:20:30;0.40;99.90
76838;DHT22;65797;47.352;8.164;2023-03-01T01:22:56;0.40;99.90
76838;DHT22;65797;47.352;8.164;2023-03-01T01:25:21;0.40;99.90
76838;DHT22;65797;47.352;8.164;2023-03-01T01:27:50;0.40;99.90
76838;DHT22;65797;47.352;8.164;2023-03-01T01:30:16;0.40;99.90
76838;DHT22;65797;47.352;8.164;2023-03-01T01:32:42;0.40;99.90
76838;DHT22;65797;47.352;8.164;2023-03-01T01:35:07;0.40;99.90
76838;DHT22;65797;47.352;8.164;2023-03-01T01:37:33;0.40;99.90
76838;DHT22;65797;47.352;8.164;2023-03-01T01:39:59;0.40;99.90
76838;DHT22;65797;47.352;8.164;2023-03-01T01:42:26;0.40;99.90
76838;DHT22;65797;47.352;8.164;2023-03-01T01:47:58;0.40;99.90
76838;DHT22;65797;47.352;8.164;2023-03-01T01:50:25;0.40;99.90
76838;DHT22;65797;47.352;8.164;2023-03-01T01:52:53;0.40;99.90
76838;DHT22;65797;47.352;8.164;2023-03-01T01:55:24;0.40;99.90
76838;DHT22;65797;47.352;8.164;2023-03-01T01:57:54;0.40;99.90
76838;DHT22;65797;47.352;8.164;2023-03-01T02:00:23;0.40;99.90
76838;DHT22;65797;47.352;8.164;2023-03-01T02:02:54;0.40;99.90
76838;DHT22;65797;47.352;8.164;2023-03-01T02:08:02;0.40;99.90
76838;DHT22;65797;47.352;8.164;2023-03-01T02:10:29;0.50;99.90
76838;DHT22;65797;47.352;8.164;2023-03-01T02:12:55;0.40;99.90
76838;DHT22;65797;47.352;8.164;2023-03-01T02:15:22;0.40;99.90
76838;DHT22;65797;47.352;8.164;2023-03-01T02:17:48;0.40;99.90
76838;DHT22;65797;47.352;8.164;2023-03-01T02:22:40;0.40;99.90
76838;DHT22;65797;47.352;8.164;2023-03-01T02:25:33;0.40;99.90
76838;DHT22;65797;47.352;8.164;2023-03-01T02:30:39;0.40;99.90
76838;DHT22;65797;47.352;8.164;2023-03-01T02:33:26;0.40;99.90
76838;DHT22;65797;47.352;8.164;2023-03-01T02:35:54;0.40;99.90
76838;DHT22;65797;47.352;8.164;2023-03-01T02:38:20;0.40;99.90
76838;DHT22;65797;47.352;8.164;2023-03-01T02:40:47;0.40;99.90
76838;DHT22;65797;47.352;8.164;2023-03-01T02:43:14;0.40;99.90
76838;DHT22;65797;47.352;8.164;2023-03-01T02:45:51;0.50;99.90
76838;DHT22;65797;47.352;8.164;2023-03-01T02:48:19;0.50;99.90
76838;DHT22;65797;47.352;8.164;2023-03-01T02:51:05;0.50;99.90
76838;DHT22;65797;47.352;8.164;2023-03-01T02:56:27;0.50;99.90
76838;DHT22;65797;47.352;8.164;2023-03-01T02:58:53;0.50;99.90
76838;DHT22;65797;47.352;8.164;2023-03-01T03:01:20;0.40;99.90
76838;DHT22;65797;47.352;8.164;2023-03-01T03:03:46;0.40;99.90
76838;DHT22;65797;47.352;8.164;2023-03-01T03:06:12;0.50;99.90
76838;DHT22;65797;47.352;8.164;2023-03-01T03:08:38;0.40;99.90
76838;DHT22;65797;47.352;8.164;2023-03-01T03:11:04;0.50;99.90
76838;DHT22;65797;47.352;8.164;2023-03-01T03:13:30;0.50;99.90
76838;DHT22;65797;47.352;8.164;2023-03-01T03:15:56;0.50;99.90
76838;DHT22;65797;47.352;8.164;2023-03-01T03:18:22;0.50;99.90
76838;DHT22;65797;47.352;8.164;2023-03-01T03:20:51;0.50;99.90
76838;DHT22;65797;47.352;8.164;2023-03-01T03:23:19;0.50;99.90
76838;DHT22;65797;47.352;8.164;2023-03-01T03:25:45;0.50;99.90
76838;DHT22;65797;47.352;8.164;2023-03-01T03:28:12;0.50;99.90
76838;DHT22;65797;47.352;8.164;2023-03-01T03:30:40;0.50;99.90
76838;DHT22;65797;47.352;8.164;2023-03-01T03:33:06;0.50;99.90
76838;DHT22;65797;47.352;8.164;2023-03-01T03:35:37;0.50;99.90
76838;DHT22;65797;47.352;8.164;2023-03-01T03:38:05;0.50;99.90
76838;DHT22;65797;47.352;8.164;2023-03-01T03:40:46;0.50;99.90
76838;DHT22;65797;47.352;8.164;2023-03-01T03:43:15;0.50;99.90
76838;DHT22;65797;47.352;8.164;2023-03-01T03:45:43;0.50;99.90
76838;DHT22;65797;47.352;8.164;2023-03-01T03:48:09;0.50;99.90
76838;DHT22;65797;47.352;8.164;2023-03-01T03:50:36;0.60;99.90
76838;DHT22;65797;47.352;8.164;2023-03-01T03:53:04;0.50;99.90
76838;DHT22;65797;47.352;8.164;2023-03-01T03:55:30;0.50;99.90
76838;DHT22;65797;47.352;8.164;2023-03-01T03:58:02;0.50;99.90
76838;DHT22;65797;47.352;8.164;2023-03-01T04:00:37;0.50;99.90
76838;DHT22;65797;47.352;8.164;2023-03-01T04:03:03;0.50;99.90
76838;DHT22;65797;47.352;8.164;2023-03-01T04:05:29;0.50;99.90
76838;DHT22;65797;47.352;8.164;2023-03-01T04:07:55;0.50;99.90
76838;DHT22;65797;47.352;8.164;2023-03-01T04:10:30;0.60;99.90
76838;DHT22;65797;47.352;8.164;2023-03-01T04:12:56;0.50;99.90
76838;DHT22;65797;47.352;8.164;2023-03-01T04:15:23;0.60;99.90
76838;DHT22;65797;47.352;8.164;2023-03-01T04:17:51;0.50;99.90
76838;DHT22;65797;47.352;8.164;2023-03-01T04:20:23;0.50;99.90
76838;DHT22;65797;47.352;8.164;2023-03-01T04:25:23;0.50;99.90
76838;DHT22;65797;47.352;8.164;2023-03-01T04:27:49;0.50;99.90
76838;DHT22;65797;47.352;8.164;2023-03-01T04:30:15;0.50;99.90
76838;DHT22;65797;47.352;8.164;2023-03-01T04:32:41;0.60;99.90
76838;DHT22;65797;47.352;8.164;2023-03-01T04:35:07;0.50;99.90
76838;DHT22;65797;47.352;8.164;2023-03-01T04:37:32;0.60;99.90
76838;DHT22;65797;47.352;8.164;2023-03-01T04:40:01;0.60;99.90
76838;DHT22;65797;47.352;8.164;2023-03-01T04:42:33;0.50;99.90
76838;DHT22;65797;47.352;8.164;2023-03-01T04:44:58;0.60;99.90
76838;DHT22;65797;47.352;8.164;2023-03-01T04:47:24;0.60;99.90
76838;DHT22;65797;47.352;8.164;2023-03-01T04:49:50;0.60;99.90
76838;DHT22;65797;47.352;8.164;2023-03-01T04:52:15;0.60;99.90
76838;DHT22;65797;47.352;8.164;2023-03-01T04:54:41;0.50;99.90
76838;DHT22;65797;47.352;8.164;2023-03-01T04:57:08;0.60;99.90
76838;DHT22;65797;47.352;8.164;2023-03-01T04:59:33;0.60;99.90
76838;DHT22;65797;47.352;8.164;2023-03-01T05:02:01;0.60;99.90
76838;DHT22;65797;47.352;8.164;2023-03-01T05:04:27;0.60;99.90
76838;DHT22;65797;47.352;8.164;2023-03-01T05:06:53;0.60;99.90
76838;DHT22;65797;47.352;8.164;2023-03-01T05:09:19;0.60;99.90
76838;DHT22;65797;47.352;8.164;2023-03-01T05:11:45;0.60;99.90
76838;DHT22;65797;47.352;8.164;2023-03-01T05:14:11;0.60;99.90
76838;DHT22;65797;47.352;8.164;2023-03-01T05:16:37;0.60;99.90
76838;DHT22;65797;47.352;8.164;2023-03-01T05:19:03;0.60;99.90
76838;DHT22;65797;47.352;8.164;2023-03-01T05:21:41;0.60;99.90
76838;DHT22;65797;47.352;8.164;2023-03-01T05:24:26;0.60;99.90
76838;DHT22;65797;47.352;8.164;2023-03-01T05:26:52;0.70;99.90
76838;DHT22;65797;47.352;8.164;2023-03-01T05:29:19;0.60;99.90
76838;DHT22;65797;47.352;8.164;2023-03-01T05:31:52;0.60;99.90
76838;DHT22;65797;47.352;8.164;2023-03-01T05:34:22;0.60;1.00
76838;DHT22;65797;47.352;8.164;2023-03-01T05:36:48;0.60;99.90
76838;DHT22;65797;47.352;8.164;2023-03-01T05:39:14;0.60;99.90
76838;DHT22;65797;47.352;8.164;2023-03-01T05:41:40;0.60;1.00
76838;DHT22;65797;47.352;8.164;2023-03-01T05:44:06;0.60;1.00
76838;DHT22;65797;47.352;8.164;2023-03-01T05:46:32;0.60;1.00
76838;DHT22;65797;47.352;8.164;2023-03-01T05:48:57;0.60;1.00
76838;DHT22;65797;47.352;8.164;2023-03-01T05:51:23;0.60;1.00
76838;DHT22;65797;47.352;8.164;2023-03-01T05:53:49;0.60;1.00
76838;DHT22;65797;47.352;8.164;2023-03-01T05:56:15;0.60;1.00
76838;DHT22;65797;47.352;8.164;2023-03-01T05:58:40;0.60;1.00
76838;DHT22;65797;47.352;8.164;2023-03-01T06:01:11;0.60;1.00
76838;DHT22;65797;47.352;8.164;2023-03-01T06:03:38;0.60;1.00
76838;DHT22;65797;47.352;8.164;2023-03-01T06:06:04;0.70;1.00
76838;DHT22;65797;47.352;8.164;2023-03-01T06:08:30;0.60;1.00
76838;DHT22;65797;47.352;8.164;2023-03-01T06:10:55;0.60;1.00
76838;DHT22;65797;47.352;8.164;2023-03-01T06:13:21;0.60;1.00
76838;DHT22;65797;47.352;8.164;2023-03-01T06:15:48;0.70;1.00
76838;DHT22;65797;47.352;8.164;2023-03-01T06:18:14;0.70;1.00
76838;DHT22;65797;47.352;8.164;2023-03-01T06:20:40;0.60;1.00
76838;DHT22;65797;47.352;8.164;2023-03-01T06:23:05;0.70;1.00
76838;DHT22;65797;47.352;8.164;2023-03-01T06:25:31;0.70;1.00
76838;DHT22;65797;47.352;8.164;2023-03-01T06:27:57;0.70;1.00
76838;DHT22;65797;47.352;8.164;2023-03-01T06:30:25;0.70;1.00
76838;DHT22;65797;47.352;8.164;2023-03-01T06:32:51;0.70;1.00
76838;DHT22;65797;47.352;8.164;2023-03-01T06:35:18;0.70;1.00
76838;DHT22;65797;47.352;8.164;2023-03-01T06:37:45;0.70;1.00
76838;DHT22;65797;47.352;8.164;2023-03-01T06:40:12;0.70;1.00
76838;DHT22;65797;47.352;8.164;2023-03-01T06:42:40;0.70;1.00
76838;DHT22;65797;47.352;8.164;2023-03-01T06:47:42;0.70;1.00
76838;DHT22;65797;47.352;8.164;2023-03-01T06:50:08;0.70;1.00
76838;DHT22;65797;47.352;8.164;2023-03-01T06:57:45;0.70;1.00
76838;DHT22;65797;47.352;8.164;2023-03-01T07:00:12;0.70;1.00
76838;DHT22;65797;47.352;8.164;2023-03-01T07:05:13;0.70;1.00
76838;DHT22;65797;47.352;8.164;2023-03-01T07:07:42;0.70;1.00
76838;DHT22;65797;47.352;8.164;2023-03-01T07:10:08;0.70;1.00
76838;DHT22;65797;47.352;8.164;2023-03-01T07:12:34;0.70;1.00
76838;DHT22;65797;47.352;8.164;2023-03-01T07:15:00;0.70;1.00
76838;DHT22;65797;47.352;8.164;2023-03-01T07:17:25;0.70;1.00
76838;DHT22;65797;47.352;8.164;2023-03-01T07:19:51;0.80;1.00
76838;DHT22;65797;47.352;8.164;2023-03-01T07:22:17;0.70;1.00
76838;DHT22;65797;47.352;8.164;2023-03-01T09:22:34;1.10;1.00
76838;DHT22;65797;47.352;8.164;2023-03-01T09:25:00;1.10;1.00
76838;DHT22;65797;47.352;8.164;2023-03-01T09:27:26;1.10;1.00
76838;DHT22;65797;47.352;8.164;2023-03-01T09:29:51;1.10;1.00
76838;DHT22;65797;47.352;8.164;2023-03-01T09:32:17;1.10;1.00
76838;DHT22;65797;47.352;8.164;2023-03-01T09:34:43;1.10;1.00
76838;DHT22;65797;47.352;8.164;2023-03-01T09:37:29;1.10;1.00
76838;DHT22;65797;47.352;8.164;2023-03-01T09:39:55;1.10;1.00
76838;DHT22;65797;47.352;8.164;2023-03-01T09:42:21;1.10;1.00
76838;DHT22;65797;47.352;8.164;2023-03-01T09:45:05;1.10;1.00
76838;DHT22;65797;47.352;8.164;2023-03-01T09:47:34;1.10;1.00
76838;DHT22;65797;47.352;8.164;2023-03-01T09:50:18;1.10;1.00
76838;DHT22;65797;47.352;8.164;2023-03-01T09:52:48;1.10;1.00
76838;DHT22;65797;47.352;8.164;2023-03-01T09:55:26;1.20;1.00
76838;DHT22;65797;47.352;8.164;2023-03-01T10:00:50;1.20;1.00
76838;DHT22;65797;47.352;8.164;2023-03-01T10:06:16;1.10;1.00
76838;DHT22;65797;47.352;8.164;2023-03-01T10:08:50;1.10;1.00
76838;DHT22;65797;47.352;8.164;2023-03-01T10:11:25;1.10;1.00
76838;DHT22;65797;47.352;8.164;2023-03-01T10:14:02;1.10;1.00
76838;DHT22;65797;47.352;8.164;2023-03-01T10:16:46;1.20;1.00
76838;DHT22;65797;47.352;8.164;2023-03-01T10:19:24;1.10;1.00
76838;DHT22;65797;47.352;8.164;2023-03-01T10:21:51;1.10;1.00
76838;DHT22;65797;47.352;8.164;2023-03-01T10:24:19;1.10;1.00
76838;DHT22;65797;47.352;8.164;2023-03-01T10:26:58;1.10;1.00
76838;DHT22;65797;47.352;8.164;2023-03-01T10:29:35;1.10;1.00
76838;DHT22;65797;47.352;8.164;2023-03-01T10:32:08;1.10;1.00
76838;DHT22;65797;47.352;8.164;2023-03-01T10:34:35;1.10;1.00
76838;DHT22;65797;47.352;8.164;2023-03-01T10:37:13;1.10;1.00
76838;DHT22;65797;47.352;8.164;2023-03-01T10:40:05;1.10;1.00
76838;DHT22;65797;47.352;8.164;2023-03-01T10:42:46;1.20;1.00
76838;DHT22;65797;47.352;8.164;2023-03-01T10:45:34;1.20;1.00
76838;DHT22;65797;47.352;8.164;2023-03-01T10:50:29;1.30;1.00
76838;DHT22;65797;47.352;8.164;2023-03-01T10:53:01;1.30;1.00
76838;DHT22;65797;47.352;8.164;2023-03-01T10:55:39;1.30;1.00
76838;DHT22;65797;47.352;8.164;2023-03-01T10:58:19;1.30;1.00
76838;DHT22;65797;47.352;8.164;2023-03-01T11:00:54;1.30;1.00
76838;DHT22;65797;47.352;8.164;2023-03-01T11:03:32;1.30;1.00
76838;DHT22;65797;47.352;8.164;2023-03-01T11:06:19;1.30;1.00
76838;DHT22;65797;47.352;8.164;2023-03-01T11:08:48;1.30;1.00
76838;DHT22;65797;47.352;8.164;2023-03-01T11:11:29;1.40;1.00
76838;DHT22;65797;47.352;8.164;2023-03-01T11:16:49;1.30;1.00
76838;DHT22;65797;47.352;8.164;2023-03-01T11:19:21;1.30;1.00
76838;DHT22;65797;47.352;8.164;2023-03-01T11:22:03;1.40;1.00
76838;DHT22;65797;47.352;8.164;2023-03-01T11:24:39;1.40;1.00
76838;DHT22;65797;47.352;8.164;2023-03-01T11:27:16;1.40;1.00
76838;DHT22;65797;47.352;8.164;2023-03-01T11:30:18;1.40;1.00
76838;DHT22;65797;47.352;8.164;2023-03-01T11:35:27;1.40;1.00
76838;DHT22;65797;47.352;8.164;2023-03-01T11:40:37;1.40;1.00
76838;DHT22;65797;47.352;8.164;2023-03-01T11:45:58;1.40;1.00
76838;DHT22;65797;47.352;8.164;2023-03-01T11:48:49;1.50;1.00
76838;DHT22;65797;47.352;8.164;2023-03-01T11:54:21;1.50;1.00
76838;DHT22;65797;47.352;8.164;2023-03-01T11:57:09;1.60;1.00
76838;DHT22;65797;47.352;8.164;2023-03-01T12:08:18;1.50;99.90
76838;DHT22;65797;47.352;8.164;2023-03-01T12:23:04;1.70;99.90
76838;DHT22;65797;47.352;8.164;2023-03-01T12:25:45;1.70;99.90
76838;DHT22;65797;47.352;8.164;2023-03-01T12:31:33;1.70;99.90
76838;DHT22;65797;47.352;8.164;2023-03-01T12:34:17;1.70;99.90
76838;DHT22;65797;47.352;8.164;2023-03-01T12:45:32;1.70;99.90
76838;DHT22;65797;47.352;8.164;2023-03-01T12:50:50;1.80;99.90
76838;DHT22;65797;47.352;8.164;2023-03-01T12:55:49;1.80;99.90
76838;DHT22;65797;47.352;8.164;2023-03-01T13:01:27;1.80;99.90
76838;DHT22;65797;47.352;8.164;2023-03-01T13:04:07;1.80;99.90
76838;DHT22;65797;47.352;8.164;2023-03-01T13:07:04;1.80;99.90
76838;DHT22;65797;47.352;8.164;2023-03-01T13:09:37;1.90;99.90
76838;DHT22;65797;47.352;8.164;2023-03-01T13:17:49;1.80;99.90
76838;DHT22;65797;47.352;8.164;2023-03-01T13:20:17;1.80;99.90
76838;DHT22;65797;47.352;8.164;2023-03-01T13:22:45;1.80;99.90
76838;DHT22;65797;47.352;8.164;2023-03-01T13:25:15;1.80;99.90
76838;DHT22;65797;47.352;8.164;2023-03-01T13:27:41;1.80;99.90
76838;DHT22;65797;47.352;8.164;2023-03-01T13:35:57;1.90;99.90
76838;DHT22;65797;47.352;8.164;2023-03-01T13:41:12;1.90;99.90
76838;DHT22;65797;47.352;8.164;2023-03-01T13:43:42;1.90;99.90
76838;DHT22;65797;47.352;8.164;2023-03-01T13:46:18;1.90;99.90
76838;DHT22;65797;47.352;8.164;2023-03-01T13:48:51;1.90;99.90
76838;DHT22;65797;47.352;8.164;2023-03-01T13:51:23;1.90;99.90
76838;DHT22;65797;47.352;8.164;2023-03-01T13:53:50;1.90;99.90
76838;DHT22;65797;47.352;8.164;2023-03-01T14:03:46;2.00;99.90
76838;DHT22;65797;47.352;8.164;2023-03-01T14:06:15;2.00;99.90
76838;DHT22;65797;47.352;8.164;2023-03-01T14:08:44;1.90;99.90
76838;DHT22;65797;47.352;8.164;2023-03-01T14:19:45;1.90;99.90
76838;DHT22;65797;47.352;8.164;2023-03-01T14:24:51;1.90;99.90
76838;DHT22;65797;47.352;8.164;2023-03-01T14:27:17;1.80;99.90
76838;DHT22;65797;47.352;8.164;2023-03-01T14:29:44;1.90;99.90
76838;DHT22;65797;47.352;8.164;2023-03-01T14:32:21;1.80;99.90
76838;DHT22;65797;47.352;8.164;2023-03-01T14:34:49;1.90;99.90
76838;DHT22;65797;47.352;8.164;2023-03-01T14:37:29;1.90;99.90
76838;DHT22;65797;47.352;8.164;2023-03-01T14:39:57;1.90;99.90
76838;DHT22;65797;47.352;8.164;2023-03-01T14:42:25;1.90;99.90
76838;DHT22;65797;47.352;8.164;2023-03-01T14:44:54;1.90;99.90
76838;DHT22;65797;47.352;8.164;2023-03-01T14:47:35;1.90;99.90
76838;DHT22;65797;47.352;8.164;2023-03-01T14:52:47;1.80;99.90
76838;DHT22;65797;47.352;8.164;2023-03-01T14:55:19;1.80;99.90
76838;DHT22;65797;47.352;8.164;2023-03-01T14:57:48;1.80;99.90
76838;DHT22;65797;47.352;8.164;2023-03-01T15:00:26;1.80;99.90
76838;DHT22;65797;47.352;8.164;2023-03-01T15:02:54;1.80;99.90
76838;DHT22;65797;47.352;8.164;2023-03-01T15:05:30;1.80;99.90
76838;DHT22;65797;47.352;8.164;2023-03-01T15:07:58;1.80;99.90
76838;DHT22;65797;47.352;8.164;2023-03-01T15:10:27;1.80;99.90
76838;DHT22;65797;47.352;8.164;2023-03-01T15:12:53;1.80;99.90
76838;DHT22;65797;47.352;8.164;2023-03-01T15:15:45;1.80;99.90
76838;DHT22;65797;47.352;8.164;2023-03-01T15:18:21;1.80;99.90
76838;DHT22;65797;47.352;8.164;2023-03-01T15:20:48;1.70;99.90
76838;DHT22;65797;47.352;8.164;2023-03-01T15:23:25;1.70;99.90
76838;DHT22;65797;47.352;8.164;2023-03-01T15:25:53;1.70;99.90
76838;DHT22;65797;47.352;8.164;2023-03-01T15:28:31;1.70;99.90
76838;DHT22;65797;47.352;8.164;2023-03-01T15:31:02;1.70;99.90
76838;DHT22;65797;47.352;8.164;2023-03-01T15:33:34;1.70;99.90
76838;DHT22;65797;47.352;8.164;2023-03-01T15:38:54;1.60;99.90
76838;DHT22;65797;47.352;8.164;2023-03-01T15:43:57;1.60;99.90
76838;DHT22;65797;47.352;8.164;2023-03-01T15:46:32;1.60;99.90
76838;DHT22;65797;47.352;8.164;2023-03-01T15:49:02;1.60;99.90
76838;DHT22;65797;47.352;8.164;2023-03-01T15:51:37;1.60;99.90
76838;DHT22;65797;47.352;8.164;2023-03-01T15:54:06;1.60;99.90
76838;DHT22;65797;47.352;8.164;2023-03-01T15:59:09;1.60;99.90
76838;DHT22;65797;47.352;8.164;2023-03-01T16:01:37;1.60;99.90
76838;DHT22;65797;47.352;8.164;2023-03-01T16:04:02;1.60;99.90
76838;DHT22;65797;47.352;8.164;2023-03-01T16:06:29;1.60;99.90
76838;DHT22;65797;47.352;8.164;2023-03-01T16:08:55;1.60;99.90
76838;DHT22;65797;47.352;8.164;2023-03-01T16:11:21;1.60;99.90
76838;DHT22;65797;47.352;8.164;2023-03-01T16:18:58;1.60;99.90
76838;DHT22;65797;47.352;8.164;2023-03-01T16:21:24;1.60;99.90
76838;DHT22;65797;47.352;8.164;2023-03-01T16:23:51;1.60;99.90
76838;DHT22;65797;47.352;8.164;2023-03-01T16:39:12;1.60;99.90
76838;DHT22;65797;47.352;8.164;2023-03-01T16:41:37;1.60;99.90
76838;DHT22;65797;47.352;8.164;2023-03-01T16:44:03;1.50;99.90
76838;DHT22;65797;47.352;8.164;2023-03-01T17:07:09;1.60;99.90
76838;DHT22;65797;47.352;8.164;2023-03-01T17:09:37;1.60;99.90
76838;DHT22;65797;47.352;8.164;2023-03-01T17:12:06;1.50;99.90
76838;DHT22;65797;47.352;8.164;2023-03-01T17:14:31;1.60;99.90
76838;DHT22;65797;47.352;8.164;2023-03-01T17:16:57;1.60;99.90
76838;DHT22;65797;47.352;8.164;2023-03-01T17:19:23;1.50;99.90
76838;DHT22;65797;47.352;8.164;2023-03-01T17:21:48;1.50;99.90
76838;DHT22;65797;47.352;8.164;2023-03-01T17:24:14;1.50;99.90
76838;DHT22;65797;47.352;8.164;2023-03-01T17:26:40;1.50;99.90
76838;DHT22;65797;47.352;8.164;2023-03-01T17:29:06;1.50;99.90
76838;DHT22;65797;47.352;8.164;2023-03-01T17:31:33;1.50;99.90
76838;DHT22;65797;47.352;8.164;2023-03-01T17:33:59;1.50;99.90
76838;DHT22;65797;47.352;8.164;2023-03-01T17:36:24;1.50;99.90
76838;DHT22;65797;47.352;8.164;2023-03-01T17:38:51;1.50;99.90
76838;DHT22;65797;47.352;8.164;2023-03-01T17:41:17;1.50;99.90
76838;DHT22;65797;47.352;8.164;2023-03-01T17:43:46;1.50;99.90
76838;DHT22;65797;47.352;8.164;2023-03-01T17:46:12;1.50;99.90
76838;DHT22;65797;47.352;8.164;2023-03-01T17:48:39;1.50;99.90
76838;DHT22;65797;47.352;8.164;2023-03-01T17:51:06;1.50;99.90
76838;DHT22;65797;47.352;8.164;2023-03-01T17:53:32;1.50;99.90
76838;DHT22;65797;47.352;8.164;2023-03-01T17:56:03;1.50;99.90
76838;DHT22;65797;47.352;8.164;2023-03-01T17:58:30;1.50;99.90
76838;DHT22;65797;47.352;8.164;2023-03-01T18:00:56;1.50;99.90
76838;DHT22;65797;47.352;8.164;2023-03-01T18:03:30;1.50;99.90
76838;DHT22;65797;47.352;8.164;2023-03-01T18:05:56;1.60;99.90
76838;DHT22;65797;47.352;8.164;2023-03-01T18:08:22;1.50;99.90
76838;DHT22;65797;47.352;8.164;2023-03-01T18:10:47;1.60;99.90
76838;DHT22;65797;47.352;8.164;2023-03-01T18:13:13;1.50;99.90
76838;DHT22;65797;47.352;8.164;2023-03-01T18:15:39;1.50;99.90
76838;DHT22;65797;47.352;8.164;2023-03-01T18:18:05;1.60;99.90
76838;DHT22;65797;47.352;8.164;2023-03-01T18:20:30;1.50;99.90
76838;DHT22;65797;47.352;8.164;2023-03-01T18:22:57;1.60;99.90
76838;DHT22;65797;47.352;8.164;2023-03-01T18:25:23;1.60;99.90
76838;DHT22;65797;47.352;8.164;2023-03-01T18:27:48;1.50;99.90
76838;DHT22;65797;47.352;8.164;2023-03-01T18:30:14;1.60;99.90
76838;DHT22;65797;47.352;8.164;2023-03-01T18:32:40;1.60;99.90
76838;DHT22;65797;47.352;8.164;2023-03-01T18:35:09;1.50;99.90
76838;DHT22;65797;47.352;8.164;2023-03-01T18:37:35;1.50;99.90
76838;DHT22;65797;47.352;8.164;2023-03-01T18:40:00;1.60;99.90
76838;DHT22;65797;47.352;8.164;2023-03-01T18:42:26;1.60;99.90
76838;DHT22;65797;47.352;8.164;2023-03-01T18:44:51;1.60;99.90
76838;DHT22;65797;47.352;8.164;2023-03-01T18:47:18;1.60;99.90
76838;DHT22;65797;47.352;8.164;2023-03-01T18:49:44;1.60;99.90
76838;DHT22;65797;47.352;8.164;2023-03-01T18:52:10;1.60;99.90
76838;DHT22;65797;47.352;8.164;2023-03-01T18:54:35;1.60;99.90
76838;DHT22;65797;47.352;8.164;2023-03-01T18:57:01;1.60;99.90
76838;DHT22;65797;47.352;8.164;2023-03-01T18:59:27;1.60;99.90
76838;DHT22;65797;47.352;8.164;2023-03-01T19:01:54;1.60;99.90
76838;DHT22;65797;47.352;8.164;2023-03-01T19:04:19;1.60;99.90
76838;DHT22;65797;47.352;8.164;2023-03-01T19:06:45;1.70;99.90
76838;DHT22;65797;47.352;8.164;2023-03-01T19:09:11;1.60;99.90
76838;DHT22;65797;47.352;8.164;2023-03-01T19:11:37;1.60;99.90
76838;DHT22;65797;47.352;8.164;2023-03-01T19:14:03;1.60;99.90
76838;DHT22;65797;47.352;8.164;2023-03-01T19:16:30;1.60;99.90
76838;DHT22;65797;47.352;8.164;2023-03-01T19:19:01;1.60;99.90
76838;DHT22;65797;47.352;8.164;2023-03-01T19:21:28;1.60;99.90
76838;DHT22;65797;47.352;8.164;2023-03-01T19:23:56;1.60;99.90
76838;DHT22;65797;47.352;8.164;2023-03-01T19:26:24;1.60;99.90
76838;DHT22;65797;47.352;8.164;2023-03-01T19:28:50;1.60;99.90
76838;DHT22;65797;47.352;8.164;2023-03-01T19:31:22;1.60;99.90
76838;DHT22;65797;47.352;8.164;2023-03-01T19:33:49;1.60;99.90
76838;DHT22;65797;47.352;8.164;2023-03-01T19:36:15;1.60;99.90
76838;DHT22;65797;47.352;8.164;2023-03-01T19:38:42;1.60;99.90
76838;DHT22;65797;47.352;8.164;2023-03-01T19:41:10;1.60;99.90
76838;DHT22;65797;47.352;8.164;2023-03-01T19:43:36;1.60;99.90
76838;DHT22;65797;47.352;8.164;2023-03-01T19:46:02;1.60;99.90
76838;DHT22;65797;47.352;8.164;2023-03-01T19:48:29;1.60;99.90
76838;DHT22;65797;47.352;8.164;2023-03-01T19:50:54;1.60;99.90
76838;DHT22;65797;47.352;8.164;2023-03-01T19:53:20;1.60;99.90
76838;DHT22;65797;47.352;8.164;2023-03-01T19:55:47;1.60;99.90
76838;DHT22;65797;47.352;8.164;2023-03-01T19:58:12;1.60;99.90
76838;DHT22;65797;47.352;8.164;2023-03-01T20:00:43;1.60;99.90
76838;DHT22;65797;47.352;8.164;2023-03-01T20:03:09;1.60;99.90
76838;DHT22;65797;47.352;8.164;2023-03-01T20:05:36;1.60;99.90
76838;DHT22;65797;47.352;8.164;2023-03-01T20:08:03;1.60;99.90
76838;DHT22;65797;47.352;8.164;2023-03-01T20:10:31;1.70;99.90
76838;DHT22;65797;47.352;8.164;2023-03-01T20:12:57;1.60;99.90
76838;DHT22;65797;47.352;8.164;2023-03-01T20:15:23;1.60;99.90
76838;DHT22;65797;47.352;8.164;2023-03-01T20:17:49;1.60;99.90
76838;DHT22;65797;47.352;8.164;2023-03-01T20:20:15;1.60;99.90
76838;DHT22;65797;47.352;8.164;2023-03-01T20:22:40;1.60;99.90
76838;DHT22;65797;47.352;8.164;2023-03-01T20:25:07;1.60;99.90
76838;DHT22;65797;47.352;8.164;2023-03-01T20:27:33;1.60;99.90
76838;DHT22;65797;47.352;8.164;2023-03-01T20:29:58;1.60;99.90
76838;DHT22;65797;47.352;8.164;2023-03-01T20:32:24;1.60;99.90
76838;DHT22;65797;47.352;8.164;2023-03-01T20:34:50;1.60;99.90
76838;DHT22;65797;47.352;8.164;2023-03-01T20:37:16;1.60;99.90
76838;DHT22;65797;47.352;8.164;2023-03-01T20:39:41;1.60;99.90
76838;DHT22;65797;47.352;8.164;2023-03-01T20:42:07;1.60;99.90
76838;DHT22;65797;47.352;8.164;2023-03-01T20:44:33;1.60;99.90
76838;DHT22;65797;47.352;8.164;2023-03-01T20:46:59;1.60;99.90
76838;DHT22;65797;47.352;8.164;2023-03-01T20:49:25;1.60;99.90
76838;DHT22;65797;47.352;8.164;2023-03-01T20:51:50;1.60;99.90
76838;DHT22;65797;47.352;8.164;2023-03-01T20:54:16;1.60;99.90